Terminal Aerodrome Forecast
Issued by NWS Charleston, WV

Home | Current Version | Previous Version | Text Only | Print | Product List | Glossary On
Versions: 1 2 3 4 5 6 7 8 9 10 11 12 13 14 15 16 17 18 19 20 21 22 23 24 25 26 27 28
000
FTUS41 KRLX 211700
TAFEKN
TAF
KEKN 211720Z 2118/2218 27005KT P6SM SCT025 BKN100
     FM212000 25006KT 6SM BR BKN035
     FM212200 VRB03KT 4SM -SHRA BR VCTS BKN025CB
     FM220200 00000KT 6SM BR BKN025
     FM221000 00000KT 1 1/2SM BR BKN010
     FM221600 27005KT 6SM TSRA BR BKN025CB=

USA.gov is the U.S. government's official web portal to all federal, state and local government web resources and services.